Time;durP1;ratioP1;P1;durP2;ratioP2;P2;SDS_P1;SDS_P2;PMS_P1;PMS_P2;Temp;Humidity;BMP_temperature;BMP_pressure;BME280_temperature;BME280_humidity;BME280_pressure;Samples;Min_cycle;Max_cycle;Signal;HPM_P1;HPM_P2
2022/11/21 00:01:27;;;;;;;66.55;32.25;;;;;;;2.73;100.00;100439.84;5049319;28;20046;-73
2022/11/21 00:03:54;;;;;;;66.50;33.33;;;;;;;2.71;100.00;100458.06;5046411;28;20412;-72
2022/11/21 00:06:22;;;;;;;68.68;32.70;;;;;;;2.72;100.00;100467.59;5049582;28;20826;-72
2022/11/21 00:08:50;;;;;;;73.32;33.97;;;;;;;2.72;100.00;100465.00;5054634;28;20044;-72
2022/11/21 00:11:17;;;;;;;76.55;35.47;;;;;;;2.73;100.00;100460.69;5050639;28;20041;-72
2022/11/21 00:13:44;;;;;;;67.93;33.10;;;;;;;2.68;100.00;100458.09;5050765;28;20068;-72
2022/11/21 00:16:14;;;;;;;69.18;33.08;;;;;;;2.65;100.00;100447.69;5056767;28;20037;-72
2022/11/21 00:18:42;;;;;;;72.43;35.30;;;;;;;2.60;100.00;100450.31;5054293;28;20046;-71
2022/11/21 00:21:17;;;;;;;72.72;34.15;;;;;;;2.57;100.00;100454.66;5048400;28;21174;-71
2022/11/21 00:23:45;;;;;;;73.50;34.60;;;;;;;2.56;100.00;100448.56;5050172;28;20085;-72
2022/11/21 00:26:15;;;;;;;80.28;36.20;;;;;;;2.54;100.00;100450.34;5059099;28;20494;-73
2022/11/21 00:28:48;;;;;;;81.45;34.95;;;;;;;2.51;100.00;100459.88;5067149;28;20091;-73
2022/11/21 00:31:22;;;;;;;79.75;35.13;;;;;;;2.56;100.00;100461.59;5046018;28;20042;-73
2022/11/21 00:33:49;;;;;;;83.20;37.83;;;;;;;2.54;100.00;100462.47;5048926;28;20034;-73
2022/11/21 00:36:16;;;;;;;78.57;33.22;;;;;;;2.54;100.00;100452.06;5051288;28;20099;-73
2022/11/21 00:38:43;;;;;;;81.93;35.70;;;;;;;2.59;100.00;100458.13;5049323;28;20087;-73
2022/11/21 00:41:10;;;;;;;87.20;35.60;;;;;;;2.60;100.00;100454.63;5042961;28;20057;-73
2022/11/21 00:43:37;;;;;;;88.30;35.88;;;;;;;2.57;100.00;100458.13;5049530;28;20056;-73
2022/11/21 00:46:04;;;;;;;89.93;35.83;;;;;;;2.58;100.00;100466.81;5036387;28;20057;-72
2022/11/21 00:48:31;;;;;;;96.00;37.47;;;;;;;2.60;100.00;100478.94;5035345;28;20041;-72
2022/11/21 00:50:59;;;;;;;110.90;39.60;;;;;;;2.58;100.00;100469.41;5046411;28;20092;-73
2022/11/21 00:53:28;;;;;;;100.60;38.65;;;;;;;2.56;100.00;100481.56;5049535;28;20075;-73
2022/11/21 00:55:56;;;;;;;105.35;39.65;;;;;;;2.56;100.00;100476.34;5054868;28;20392;-73
2022/11/21 00:58:23;;;;;;;102.13;39.45;;;;;;;2.58;100.00;100470.25;5052895;28;20136;-71
2022/11/21 01:00:51;;;;;;;101.63;38.28;;;;;;;2.60;100.00;100473.72;5060645;28;20041;-71
2022/11/21 01:03:18;;;;;;;96.30;39.13;;;;;;;2.61;100.00;100461.56;5065886;28;21000;-71
2022/11/21 01:05:45;;;;;;;110.38;38.90;;;;;;;2.66;100.00;100471.97;5061368;28;20048;-72
2022/11/21 01:08:12;;;;;;;100.65;39.58;;;;;;;2.66;100.00;100478.06;5039457;28;20068;-72
2022/11/21 01:10:39;;;;;;;108.82;39.75;;;;;;;2.67;100.00;100464.16;5051572;28;20045;-73
2022/11/21 01:13:06;;;;;;;115.45;39.58;;;;;;;2.64;100.00;100464.16;5052513;28;20033;-73
2022/11/21 01:15:33;;;;;;;111.13;40.20;;;;;;;2.63;100.00;100476.34;5061788;28;20866;-73
2022/11/21 01:18:00;;;;;;;105.53;38.75;;;;;;;2.63;100.00;100478.94;5050947;28;20048;-72
2022/11/21 01:20:27;;;;;;;115.63;39.03;;;;;;;2.66;100.00;100469.34;5057692;28;20481;-73
2022/11/21 01:22:54;;;;;;;101.20;38.83;;;;;;;2.67;100.00;100474.59;5051957;28;20041;-73
2022/11/21 01:25:21;;;;;;;129.73;39.97;;;;;;;2.71;100.00;100467.63;5054670;28;20045;-72
2022/11/21 01:27:48;;;;;;;119.95;40.05;;;;;;;2.72;100.00;100466.75;5052519;28;20037;-73
2022/11/21 01:30:16;;;;;;;149.02;42.55;;;;;;;2.69;100.00;100459.81;5062174;28;20056;-73
2022/11/21 01:32:48;;;;;;;148.90;41.75;;;;;;;2.63;100.00;100460.72;5069469;28;21036;-73
2022/11/21 01:35:16;;;;;;;130.23;41.13;;;;;;;2.62;100.00;100464.19;5042459;28;20507;-72
2022/11/21 01:37:47;;;;;;;131.32;41.08;;;;;;;2.59;100.00;100468.53;5062147;28;20045;-72
2022/11/21 01:40:15;;;;;;;124.55;39.58;;;;;;;2.55;100.00;100472.00;5059888;28;20507;-72
2022/11/21 01:42:59;;;;;;;128.02;41.03;;;;;;;2.56;100.00;100463.34;5043004;28;20135;-72
2022/11/21 01:45:59;;;;;;;131.68;40.35;;;;;;;2.54;100.00;100462.47;5063669;28;20041;-72
2022/11/21 01:48:34;;;;;;;141.70;40.28;;;;;;;2.51;100.00;100458.16;5032995;28;20042;-72
2022/11/21 01:51:11;;;;;;;141.57;41.15;;;;;;;2.51;100.00;100467.69;5060738;28;20057;-72
2022/11/21 01:53:43;;;;;;;189.63;42.03;;;;;;;2.54;100.00;100475.47;5066232;28;20065;-72
2022/11/21 01:56:10;;;;;;;238.23;44.55;;;;;;;2.54;100.00;100480.69;5058085;28;20132;-72
2022/11/21 01:58:41;;;;;;;195.20;44.88;;;;;;;2.54;100.00;100465.06;5055323;28;20466;-71
2022/11/21 02:01:09;;;;;;;226.95;46.03;;;;;;;2.55;100.00;100459.84;5045795;28;20046;-72
2022/11/21 02:03:43;;;;;;;251.93;45.90;;;;;;;2.55;100.00;100466.81;5054603;28;20080;-72
2022/11/21 02:06:11;;;;;;;275.85;47.83;;;;;;;2.52;100.00;100470.28;5060958;28;20189;-72
2022/11/21 02:08:42;;;;;;;207.88;44.05;;;;;;;2.49;100.00;100472.91;5052093;28;20037;-72
2022/11/21 02:11:37;;;;;;;203.70;44.55;;;;;;;2.47;100.00;100474.63;5056977;28;20079;-72
2022/11/21 02:14:05;;;;;;;;;;;;;;;2.42;100.00;100473.78;5054525;28;20049;-72
2022/11/21 02:16:34;;;;;;;326.20;48.72;;;;;;;2.40;100.00;100478.97;5059413;28;19935;-72
2022/11/21 02:19:02;;;;;;;404.17;53.75;;;;;;;2.42;100.00;100471.19;5051042;28;20119;-72
2022/11/21 02:21:54;;;;;;;374.83;52.55;;;;;;;2.50;100.00;100482.44;5058464;28;20053;-72
2022/11/21 02:24:35;;;;;;;267.25;46.90;;;;;;;2.54;100.00;100478.97;5055297;28;20045;-72
2022/11/21 02:27:02;;;;;;;351.02;51.22;;;;;;;2.56;100.00;100477.19;5051689;28;20052;-72
2022/11/21 02:29:30;;;;;;;235.60;45.13;;;;;;;2.59;100.00;100476.34;5049398;28;20053;-73
2022/11/21 02:32:04;;;;;;;199.77;44.47;;;;;;;2.62;100.00;100478.91;5049581;28;20104;-73
2022/11/21 02:34:32;;;;;;;551.28;62.65;;;;;;;2.64;100.00;100483.28;5051316;28;20484;-73
2022/11/21 02:37:01;;;;;;;376.63;54.78;;;;;;;2.66;100.00;100485.84;5050969;28;20045;-73
2022/11/21 02:39:34;;;;;;;338.10;50.10;;;;;;;2.69;100.00;100485.84;5042088;28;20050;-73
2022/11/21 02:42:13;;;;;;;200.02;37.47;;;;;;;2.64;100.00;100483.28;5039644;28;20049;-73
2022/11/21 02:45:15;;;;;;;196.13;36.30;;;;;;;2.58;100.00;100480.66;5055268;28;20052;-73
2022/11/21 02:47:44;;;;;;;129.68;30.90;;;;;;;2.54;100.00;100478.09;5045633;28;20049;-73
2022/11/21 02:50:18;;;;;;;137.73;29.55;;;;;;;2.45;99.76;100472.03;5062613;28;20056;-72
2022/11/21 02:52:46;;;;;;;150.85;30.33;;;;;;;2.35;99.84;100475.53;5052023;28;20049;-71
2022/11/21 02:55:14;;;;;;;161.95;32.10;;;;;;;2.31;100.00;100476.41;5055113;28;20467;-69
2022/11/21 02:57:42;;;;;;;185.55;33.70;;;;;;;2.32;100.00;100478.13;5049854;28;20041;-69
2022/11/21 03:00:11;;;;;;;169.02;33.40;;;;;;;2.31;100.00;100471.19;5058621;28;20048;-69
2022/11/21 03:02:39;;;;;;;112.32;31.60;;;;;;;2.22;100.00;100464.28;5054068;28;20042;-69
2022/11/21 03:05:10;;;;;;;226.13;35.78;;;;;;;2.24;100.00;100469.47;5051278;28;20514;-69
2022/11/21 03:07:41;;;;;;;154.65;33.97;;;;;;;2.26;100.00;100471.22;5058786;28;20034;-69
2022/11/21 03:10:09;;;;;;;119.68;33.03;;;;;;;2.28;100.00;100466.88;5062658;28;20680;-69
2022/11/21 03:12:39;;;;;;;181.32;35.40;;;;;;;2.34;100.00;100466.00;5055318;28;20148;-69
2022/11/21 03:15:09;;;;;;;197.68;36.10;;;;;;;2.39;100.00;100468.59;5048645;28;20714;-69
2022/11/21 03:17:36;;;;;;;194.13;37.13;;;;;;;2.43;100.00;100480.72;5055360;28;20037;-70
2022/11/21 03:20:06;;;;;;;133.63;33.45;;;;;;;2.41;100.00;100483.31;5062067;28;20499;-70
2022/11/21 03:22:34;;;;;;;167.23;33.17;;;;;;;2.44;100.00;100487.66;5059137;28;20041;-71
2022/11/21 03:25:05;;;;;;;224.52;35.70;;;;;;;2.46;100.00;100491.09;5054234;28;20042;-71
2022/11/21 03:27:33;;;;;;;104.65;31.40;;;;;;;2.46;100.00;100485.91;5048758;28;20506;-71
2022/11/21 03:30:03;;;;;;;94.00;30.60;;;;;;;2.48;100.00;100490.25;5056036;28;20033;-72
2022/11/21 03:32:30;;;;;;;154.00;34.78;;;;;;;2.48;100.00;100473.75;5050523;28;20045;-72
2022/11/21 03:34:57;;;;;;;199.95;35.67;;;;;;;2.50;100.00;100485.03;5057475;28;20037;-72
2022/11/21 03:37:25;;;;;;;134.27;33.42;;;;;;;2.51;100.00;100486.78;5070430;28;20052;-72
2022/11/21 03:39:56;;;;;;;175.50;35.65;;;;;;;2.49;100.00;100478.94;5058007;28;20033;-72
2022/11/21 03:42:23;;;;;;;149.32;33.05;;;;;;;2.47;100.00;100478.13;5052332;28;20065;-72
2022/11/21 03:44:50;;;;;;;163.77;33.33;;;;;;;2.46;100.00;100468.56;5051006;28;20044;-72
2022/11/21 03:47:17;;;;;;;228.27;37.47;;;;;;;2.44;100.00;100464.25;5062176;28;20047;-72
2022/11/21 03:49:44;;;;;;;279.48;38.90;;;;;;;2.41;100.00;100474.66;5045519;28;20076;-72
2022/11/21 03:52:11;;;;;;;169.07;33.13;;;;;;;2.40;100.00;100465.13;5059794;28;20063;-73
2022/11/21 03:54:38;;;;;;;188.88;34.63;;;;;;;2.40;100.00;100465.97;5060160;28;20422;-72
2022/11/21 03:57:05;;;;;;;139.55;32.75;;;;;;;2.39;100.00;100456.44;5053868;28;20499;-72
2022/11/21 03:59:32;;;;;;;226.60;35.72;;;;;;;2.40;100.00;100465.97;5051029;28;20448;-72
2022/11/21 04:01:59;;;;;;;165.07;34.35;;;;;;;2.42;100.00;100463.38;5064509;28;20044;-72
2022/11/21 04:04:26;;;;;;;282.98;37.28;;;;;;;2.46;100.00;100458.16;5050022;28;20131;-71
2022/11/21 04:06:53;;;;;;;145.98;32.92;;;;;;;2.48;100.00;100464.22;5046535;28;20084;-72
2022/11/21 04:09:20;;;;;;;280.60;38.92;;;;;;;2.51;100.00;100462.47;5056156;28;20049;-72
2022/11/21 04:11:48;;;;;;;117.38;32.70;;;;;;;2.51;100.00;100465.97;5051009;28;20507;-72
2022/11/21 04:14:15;;;;;;;335.48;41.33;;;;;;;2.53;100.00;100463.34;5059105;28;20052;-72
2022/11/21 04:16:45;;;;;;;181.95;36.10;;;;;;;2.54;100.00;100465.06;5057723;28;20052;-70
2022/11/21 04:19:13;;;;;;;258.38;37.80;;;;;;;2.56;100.00;100458.97;5049163;28;20630;-70
2022/11/21 04:21:44;;;;;;;288.13;37.45;;;;;;;2.57;100.00;100458.13;5048270;28;20103;-70
2022/11/21 04:24:11;;;;;;;101.25;30.55;;;;;;;2.59;100.00;100455.53;5051724;28;20489;-72
2022/11/21 04:26:38;;;;;;;117.57;28.20;;;;;;;2.61;100.00;100456.38;5070543;28;20033;-73
2022/11/21 04:29:05;;;;;;;90.80;27.55;;;;;;;2.62;100.00;100460.69;5055571;28;20034;-72
2022/11/21 04:31:32;;;;;;;91.20;28.58;;;;;;;2.64;100.00;100445.94;5055243;28;20056;-72
2022/11/21 04:33:59;;;;;;;88.00;28.83;;;;;;;2.67;100.00;100452.88;5054610;28;20049;-72
2022/11/21 04:36:26;;;;;;;98.55;28.40;;;;;;;2.66;100.00;100446.81;5047791;28;20034;-72
2022/11/21 04:38:53;;;;;;;103.93;27.75;;;;;;;2.67;100.00;100456.34;5059648;28;20042;-72
2022/11/21 04:41:20;;;;;;;135.45;30.05;;;;;;;2.67;100.00;100447.66;5056045;28;20037;-73
2022/11/21 04:43:48;;;;;;;87.32;27.88;;;;;;;2.64;100.00;100449.44;5055050;28;20117;-73
2022/11/21 04:46:15;;;;;;;93.75;28.73;;;;;;;2.66;100.00;100443.31;5060333;28;20495;-73
2022/11/21 04:48:42;;;;;;;90.43;27.80;;;;;;;2.68;100.00;100444.19;5055960;28;20037;-72
2022/11/21 04:51:09;;;;;;;120.22;28.90;;;;;;;2.71;100.00;100446.78;5054818;28;20053;-72
2022/11/21 04:53:36;;;;;;;120.82;30.20;;;;;;;2.71;100.00;100439.00;5056124;28;20052;-72
2022/11/21 04:56:09;;;;;;;189.73;34.20;;;;;;;2.72;100.00;100443.31;5041106;28;20041;-72
2022/11/21 04:58:36;;;;;;;181.82;33.40;;;;;;;2.73;100.00;100440.69;5045268;28;20041;-73
2022/11/21 05:01:08;;;;;;;436.58;43.45;;;;;;;2.75;100.00;100438.06;5055544;28;20037;-72
2022/11/21 05:03:35;;;;;;;242.63;37.45;;;;;;;2.74;100.00;100431.16;5054746;28;20037;-73
2022/11/21 05:06:03;;;;;;;148.73;32.92;;;;;;;2.76;100.00;100435.50;5054082;28;20049;-72
2022/11/21 05:08:30;;;;;;;202.50;37.00;;;;;;;2.77;100.00;100441.56;5057915;28;20037;-72
2022/11/21 05:13:47;;;;;;;279.92;38.80;;;;;;;2.82;100.00;100428.50;5023592;28;20049;-72
2022/11/21 05:16:14;;;;;;;294.55;39.63;;;;;;;2.83;100.00;100428.53;5055201;28;20052;-73
2022/11/21 05:18:43;;;;;;;278.88;36.97;;;;;;;2.86;100.00;100425.03;5056635;28;20037;-72
2022/11/21 05:21:10;;;;;;;245.85;38.13;;;;;;;2.86;100.00;100418.06;5056167;28;20045;-72
2022/11/21 05:23:38;;;;;;;550.35;50.42;;;;;;;2.87;100.00;100417.19;5056138;28;20073;-72
2022/11/21 05:26:05;;;;;;;323.38;42.00;;;;;;;2.90;100.00;100411.13;5052243;28;20049;-72
2022/11/21 05:28:32;;;;;;;208.60;36.08;;;;;;;2.89;100.00;100409.41;5056401;28;20080;-71
2022/11/21 05:30:59;;;;;;;364.15;43.03;;;;;;;2.87;100.00;100405.94;5052195;28;20144;-72
2022/11/21 05:33:26;;;;;;;321.13;40.83;;;;;;;2.83;100.00;100417.22;5050168;28;20533;-73
2022/11/21 05:35:53;;;;;;;244.32;35.97;;;;;;;2.78;100.00;100409.44;5049374;28;20046;-73
2022/11/21 05:38:20;;;;;;;189.30;34.60;;;;;;;2.75;100.00;100405.13;5041700;28;20046;-72
2022/11/21 05:40:47;;;;;;;344.38;39.58;;;;;;;2.77;100.00;100400.78;5057279;28;20048;-72
2022/11/21 05:46:00;;;;;;;349.63;40.35;;;;;;;2.79;100.00;100391.22;5045612;28;20057;-71
2022/11/21 05:48:28;;;;;;;294.98;39.13;;;;;;;2.80;100.00;100392.94;5047211;28;20060;-71
2022/11/21 05:50:55;;;;;;;278.92;37.45;;;;;;;2.79;100.00;100393.84;5053699;28;20060;-71
2022/11/21 05:53:22;;;;;;;345.95;40.75;;;;;;;2.79;100.00;100396.44;5044364;28;20076;-72
2022/11/21 05:56:08;;;;;;;315.65;39.90;;;;;;;2.79;100.00;100390.34;5045720;28;20041;-71
2022/11/21 05:58:35;;;;;;;396.75;42.83;;;;;;;2.77;100.00;100385.16;5044698;28;20037;-71
2022/11/21 06:01:05;;;;;;;325.55;42.00;;;;;;;2.80;100.00;100384.28;5044446;28;20077;-71
2022/11/21 06:03:39;;;;;;;229.77;37.60;;;;;;;2.89;100.00;100389.41;5050379;28;20049;-71
2022/11/21 06:06:13;;;;;;;359.48;49.78;;;;;;;2.95;100.00;100385.91;5051602;28;20529;-72
2022/11/21 06:08:43;;;;;;;533.22;50.17;;;;;;;2.98;100.00;100382.41;5049590;28;20037;-71
2022/11/21 06:11:14;;;;;;;439.25;42.40;;;;;;;2.98;100.00;100387.63;5042107;28;20046;-71
2022/11/21 06:13:42;;;;;;;224.85;33.50;;;;;;;2.98;100.00;100385.91;5042730;28;21110;-71
2022/11/21 06:16:13;;;;;;;451.20;44.42;;;;;;;3.03;100.00;100391.09;5048042;28;20042;-71
2022/11/21 06:18:46;;;;;;;177.50;32.22;;;;;;;3.01;100.00;100387.63;5048091;28;20052;-71
2022/11/21 06:21:17;;;;;;;355.95;39.58;;;;;;;3.02;100.00;100387.59;5046334;28;20099;-70
2022/11/21 06:23:45;;;;;;;154.65;31.70;;;;;;;3.00;100.00;100393.69;5045154;28;20041;-70
2022/11/21 06:26:16;;;;;;;226.55;33.70;;;;;;;2.98;100.00;100391.13;5047186;28;20049;-70
2022/11/21 06:28:44;;;;;;;297.65;37.72;;;;;;;2.97;100.00;100394.59;5043413;28;20127;-71
2022/11/21 06:31:19;;;;;;;381.40;40.13;;;;;;;2.95;100.00;100396.34;5044147;28;20430;-71
2022/11/21 06:33:52;;;;;;;544.92;48.30;;;;;;;2.92;100.00;100404.16;5042128;28;20766;-71
2022/11/21 06:36:19;;;;;;;135.80;32.22;;;;;;;2.89;100.00;100396.38;5046029;28;20053;-71
2022/11/21 06:38:46;;;;;;;298.05;36.38;;;;;;;2.89;100.00;100389.41;5039964;28;20558;-71
2022/11/21 06:41:22;;;;;;;291.60;37.25;;;;;;;2.91;100.00;100399.81;5035156;28;20531;-71
2022/11/21 06:43:50;;;;;;;414.60;44.92;;;;;;;2.89;100.00;100386.81;5037677;28;20092;-71
2022/11/21 06:46:18;;;;;;;364.25;39.88;;;;;;;2.89;100.00;100385.97;5042291;28;20045;-71
2022/11/21 06:48:46;;;;;;;359.75;41.53;;;;;;;2.88;100.00;100384.22;5039798;28;20045;-71
2022/11/21 06:51:22;;;;;;;258.13;36.80;;;;;;;2.87;100.00;100374.69;5036953;28;20069;-71
2022/11/21 06:53:57;;;;;;;273.17;38.47;;;;;;;2.83;100.00;100372.97;5021399;28;20120;-70
2022/11/21 06:56:27;;;;;;;430.93;42.97;;;;;;;2.86;100.00;100380.75;5044511;28;20045;-71
2022/11/21 06:58:55;;;;;;;292.63;36.97;;;;;;;2.86;100.00;100383.38;5033830;28;20255;-70
2022/11/21 07:01:24;;;;;;;278.67;36.22;;;;;;;2.85;100.00;100369.47;5039590;28;20056;-71
2022/11/21 07:03:53;;;;;;;377.55;41.15;;;;;;;2.85;100.00;100363.41;5034051;28;20048;-71
2022/11/21 07:06:21;;;;;;;477.70;43.60;;;;;;;2.84;100.00;100359.97;5038086;28;20044;-71
2022/11/21 07:08:53;;;;;;;437.88;45.65;;;;;;;2.86;100.00;100359.94;5048600;28;20411;-70
2022/11/21 07:11:40;;;;;;;320.48;36.95;;;;;;;2.86;100.00;100349.53;5048835;28;20048;-71
2022/11/21 07:14:07;;;;;;;320.42;37.20;;;;;;;2.88;100.00;100347.78;5049557;28;20042;-71
2022/11/21 07:16:36;;;;;;;315.42;34.92;;;;;;;2.89;100.00;100347.75;5042892;28;20041;-71
2022/11/21 07:19:03;;;;;;;251.00;35.08;;;;;;;2.92;100.00;100346.88;5048479;28;20042;-71
2022/11/21 07:21:30;;;;;;;473.65;42.63;;;;;;;2.93;100.00;100349.47;5034756;28;20042;-71
2022/11/21 07:23:57;;;;;;;335.27;38.00;;;;;;;2.96;100.00;100343.38;5046764;28;20049;-71
2022/11/21 07:26:25;;;;;;;472.30;44.92;;;;;;;2.97;100.00;100347.72;5039472;28;20041;-71
2022/11/21 07:28:53;;;;;;;385.15;41.75;;;;;;;3.00;100.00;100344.22;5050779;28;20112;-71
2022/11/21 07:31:20;;;;;;;388.08;42.60;;;;;;;3.01;100.00;100348.56;5041494;28;20133;-71
2022/11/21 07:33:47;;;;;;;451.13;45.03;;;;;;;3.03;100.00;100349.41;5047465;28;20125;-71
2022/11/21 07:36:14;;;;;;;352.60;40.45;;;;;;;3.05;100.00;100352.88;5040795;28;20044;-71
2022/11/21 07:38:41;;;;;;;308.42;38.60;;;;;;;3.08;100.00;100356.31;5042701;28;20043;-71
2022/11/21 07:41:09;;;;;;;430.17;44.17;;;;;;;3.14;100.00;100338.91;5050663;28;20041;-71
2022/11/21 07:43:36;;;;;;;478.55;45.28;;;;;;;3.16;100.00;100342.38;5034732;28;20041;-70
2022/11/21 07:46:05;;;;;;;522.08;48.88;;;;;;;3.20;100.00;100338.88;5045385;28;20049;-71
2022/11/21 07:48:32;;;;;;;431.40;42.08;;;;;;;3.22;100.00;100329.28;5050983;28;20056;-71
2022/11/21 07:51:03;;;;;;;211.05;34.47;;;;;;;3.26;100.00;100328.38;5042108;28;20113;-71
2022/11/21 07:53:30;;;;;;;285.77;36.30;;;;;;;3.30;100.00;100324.00;5051152;28;20117;-70
2022/11/21 07:55:59;;;;;;;321.00;37.08;;;;;;;3.31;100.00;100326.59;5051695;28;20038;-70
2022/11/21 07:58:26;;;;;;;189.13;31.88;;;;;;;3.35;100.00;100330.06;5045943;28;20492;-70
2022/11/21 08:00:53;;;;;;;173.00;33.05;;;;;;;3.37;100.00;100328.28;5046194;28;20045;-70
2022/11/21 08:03:21;;;;;;;273.58;37.70;;;;;;;3.41;100.00;100324.78;5051082;28;20041;-70
2022/11/21 08:05:48;;;;;;;508.92;47.17;;;;;;;3.45;100.00;100328.22;5033878;28;20073;-70
2022/11/21 08:08:16;;;;;;;173.75;34.10;;;;;;;3.49;100.00;100325.56;5051435;28;20044;-70
2022/11/21 08:10:45;;;;;;;289.98;37.70;;;;;;;3.55;100.00;100329.88;5050953;28;20037;-70
2022/11/21 08:13:13;;;;;;;246.57;38.40;;;;;;;3.63;100.00;100327.19;5050045;28;20491;-70
2022/11/21 08:15:41;;;;;;;363.23;43.65;;;;;;;3.70;100.00;100326.25;5048158;28;20494;-71
2022/11/21 08:18:19;;;;;;;337.55;43.85;;;;;;;3.79;100.00;100320.09;5039691;28;20033;-71
2022/11/21 08:20:47;;;;;;;232.07;37.75;;;;;;;3.82;100.00;100320.91;5050529;28;20407;-70
2022/11/21 08:23:14;;;;;;;235.98;36.70;;;;;;;3.87;100.00;100315.63;5051033;28;20037;-70
2022/11/21 08:25:42;;;;;;;174.60;34.13;;;;;;;3.94;100.00;100319.91;5050220;28;20400;-70
2022/11/21 08:28:11;;;;;;;245.65;35.60;;;;;;;3.99;100.00;100314.63;5049302;28;20455;-70
2022/11/21 08:30:39;;;;;;;251.30;35.55;;;;;;;4.03;100.00;100311.97;5050486;28;20337;-70
2022/11/21 08:33:07;;;;;;;281.42;37.42;;;;;;;4.08;100.00;100309.31;5047688;28;20049;-70
2022/11/21 08:35:37;;;;;;;130.85;31.95;;;;;;;4.10;100.00;100314.53;5049115;28;20033;-70
2022/11/21 08:38:05;;;;;;;218.30;35.53;;;;;;;4.12;100.00;100307.53;5042409;28;20038;-70
2022/11/21 08:40:33;;;;;;;240.30;38.90;;;;;;;4.13;100.00;100309.25;5044923;28;20038;-70
2022/11/21 08:43:07;;;;;;;175.25;34.55;;;;;;;4.15;100.00;100297.94;5049544;28;20088;-70
2022/11/21 08:45:37;;;;;;;180.88;33.80;;;;;;;4.14;100.00;100288.38;5049137;28;20056;-69
2022/11/21 08:48:10;;;;;;;143.73;32.30;;;;;;;4.14;100.00;100290.09;5051198;28;20120;-69
2022/11/21 08:50:38;;;;;;;154.50;33.38;;;;;;;4.14;100.00;100283.16;5050633;28;20531;-68
2022/11/21 08:53:05;;;;;;;136.60;32.63;;;;;;;4.17;100.00;100282.25;5051189;28;20042;-68
2022/11/21 08:55:32;;;;;;;122.80;30.85;;;;;;;4.14;100.00;100277.06;5050274;28;20052;-68
2022/11/21 08:57:59;;;;;;;165.70;33.10;;;;;;;4.13;100.00;100277.94;5049104;28;20482;-68
2022/11/21 09:00:26;;;;;;;145.90;32.60;;;;;;;4.13;100.00;100275.31;5033708;28;20092;-67
2022/11/21 09:02:53;;;;;;;138.88;33.80;;;;;;;4.13;100.00;100263.16;5045368;28;20033;-67
2022/11/21 09:05:20;;;;;;;132.60;32.25;;;;;;;4.15;100.00;100260.53;5051239;28;20045;-68
2022/11/21 09:07:47;;;;;;;120.88;34.58;;;;;;;4.17;100.00;100262.22;5051326;28;20041;-69
2022/11/21 09:10:14;;;;;;;124.70;33.53;;;;;;;4.24;100.00;100263.00;5051592;28;20046;-69
2022/11/21 09:12:42;;;;;;;110.10;32.50;;;;;;;4.33;100.00;100264.63;5050045;28;20037;-69
2022/11/21 09:18:04;;;;;;;110.78;33.72;;;;;;;4.58;100.00;100254.72;5051340;28;20430;-69
2022/11/21 09:20:40;;;;;;;118.70;33.55;;;;;;;4.72;100.00;100256.25;5054142;28;20045;-69
2022/11/21 09:23:11;;;;;;;109.93;32.95;;;;;;;4.77;100.00;100257.91;5053051;28;20112;-70
2022/11/21 09:25:40;;;;;;;112.25;32.53;;;;;;;4.89;100.00;100255.97;5053964;28;20071;-70
2022/11/21 09:28:11;;;;;;;129.65;33.58;;;;;;;5.04;100.00;100253.13;5053873;28;20041;-70
2022/11/21 09:30:41;;;;;;;141.23;33.85;;;;;;;5.17;100.00;100255.53;5054078;28;20049;-70
2022/11/21 09:33:15;;;;;;;123.72;34.92;;;;;;;5.27;100.00;100252.72;5054045;28;20084;-70
2022/11/21 09:35:43;;;;;;;93.88;31.67;;;;;;;5.34;100.00;100247.41;5054249;28;20526;-70
2022/11/21 09:38:10;;;;;;;106.03;30.77;;;;;;;5.33;100.00;100236.06;5054141;28;20042;-70
2022/11/21 09:40:44;;;;;;;119.75;32.75;;;;;;;5.34;100.00;100234.31;5053912;28;20037;-70
2022/11/21 09:43:41;;;;;;;107.07;31.35;;;;;;;5.34;100.00;100235.19;5053558;28;20043;-70
2022/11/21 09:46:13;;;;;;;83.55;29.38;;;;;;;5.37;100.00;100239.47;5054104;28;20045;-70
2022/11/21 09:49:02;;;;;;;78.78;28.63;;;;;;;5.39;100.00;100229.84;5049346;28;20053;-70
2022/11/21 09:51:31;;;;;;;78.15;29.25;;;;;;;5.43;100.00;100218.47;5052245;28;20048;-70
2022/11/21 09:54:22;;;;;;;78.65;29.73;;;;;;;5.50;100.00;100229.66;5051127;28;20041;-69
2022/11/21 09:56:52;;;;;;;68.50;28.17;;;;;;;5.53;100.00;100221.75;5053145;28;20046;-70
2022/11/21 09:59:32;;;;;;;78.15;29.15;;;;;;;5.69;100.00;100217.09;5052889;28;20042;-70
2022/11/21 10:02:00;;;;;;;83.85;29.77;;;;;;;5.83;100.00;100207.22;5038699;28;20041;-70
2022/11/21 10:04:27;;;;;;;74.70;29.75;;;;;;;5.96;100.00;100206.94;5052215;28;20045;-70
2022/11/21 10:07:05;;;;;;;79.38;31.30;;;;;;;6.14;100.00;100203.09;5052701;28;20060;-70
2022/11/21 10:09:45;;;;;;;65.85;29.20;;;;;;;6.28;100.00;100205.41;5051260;28;20063;-69
2022/11/21 10:12:54;;;;;;;84.05;43.63;;;;;;;6.39;100.00;100197.31;5050947;28;20042;-70
2022/11/21 10:15:55;;;;;;;56.38;27.10;;;;;;;6.47;100.00;100201.47;5051575;28;20052;-70
2022/11/21 10:18:31;;;;;;;52.33;25.63;;;;;;;6.55;100.00;100195.19;5043225;28;20107;-70
2022/11/21 10:21:08;;;;;;;51.38;26.00;;;;;;;6.64;100.00;100190.59;5048225;28;20049;-70
2022/11/21 10:24:20;;;;;;;50.17;25.75;;;;;;;6.74;100.00;100188.63;5050561;28;20041;-70
2022/11/21 10:26:58;;;;;;;58.95;28.23;;;;;;;6.86;100.00;100184.81;5051664;28;20056;-70
2022/11/21 10:29:40;;;;;;;46.35;22.15;;;;;;;6.97;100.00;100185.41;5049968;28;20041;-70
2022/11/21 10:32:24;;;;;;;41.60;25.27;;;;;;;7.19;100.00;100171.72;5051856;28;20079;-70
2022/11/21 10:34:58;;;;;;;35.35;21.70;;;;;;;7.32;100.00;100174.88;5050699;28;20046;-69
2022/11/21 10:37:37;;;;;;;38.38;20.80;;;;;;;7.42;100.00;100176.34;5035377;28;20930;-70
2022/11/21 10:40:40;;;;;;;31.85;19.45;;;;;;;7.48;100.00;100169.22;5050749;28;20045;-70
2022/11/21 10:46:28;;;;;;;34.45;18.67;;;;;;;7.67;100.00;100145.91;5051580;28;20081;-70
2022/11/21 10:48:59;;;;;;;152.80;77.13;;;;;;;7.66;100.00;100150.31;5051197;28;20046;-70
2022/11/21 10:52:16;;;;;;;138.88;59.95;;;;;;;7.76;99.93;100146.53;5051289;28;20069;-70
2022/11/21 10:55:03;;;;;;;46.97;28.13;;;;;;;7.89;99.67;100136.50;5050419;28;20041;-70
2022/11/21 10:57:45;;;;;;;22.50;15.57;;;;;;;7.92;99.68;100133.81;5050572;28;20047;-70
2022/11/21 11:00:21;;;;;;;28.40;17.02;;;;;;;7.90;99.30;100132.09;5051442;28;20057;-70
2022/11/21 11:02:54;;;;;;;23.50;15.68;;;;;;;7.81;99.34;100122.78;5033718;28;20531;-70
2022/11/21 11:05:25;;;;;;;24.65;16.92;;;;;;;7.79;99.21;100119.31;5048890;28;20049;-70
2022/11/21 11:08:08;;;;;;;26.52;17.48;;;;;;;7.81;98.71;100111.41;5047442;28;20045;-70
2022/11/21 11:10:38;;;;;;;29.30;18.77;;;;;;;7.82;98.69;100110.50;5050855;28;20565;-70
2022/11/21 11:13:33;;;;;;;25.92;20.00;;;;;;;7.87;98.36;100098.09;5051144;28;20128;-70
2022/11/21 11:16:20;;;;;;;37.45;28.25;;;;;;;7.83;98.29;100099.97;5050582;28;20780;-70
2022/11/21 11:19:22;;;;;;;23.17;14.15;;;;;;;7.78;98.22;100092.22;5040552;28;20088;-70
2022/11/21 11:22:00;;;;;;;36.10;12.07;;;;;;;7.76;98.41;100093.16;5048906;28;20044;-70
2022/11/21 11:24:27;;;;;;;19.50;10.20;;;;;;;7.80;98.25;100086.94;5050714;28;20096;-70
2022/11/21 11:27:00;;;;;;;18.13;10.57;;;;;;;7.76;98.28;100080.94;5051053;28;20045;-70
2022/11/21 11:29:31;;;;;;;23.60;14.15;;;;;;;7.73;98.13;100080.16;5044480;28;20048;-70
2022/11/21 11:32:16;;;;;;;20.00;11.85;;;;;;;7.70;98.74;100080.25;5049790;28;20053;-70
2022/11/21 11:35:19;;;;;;;33.03;23.80;;;;;;;7.75;98.54;100078.31;5047060;28;20049;-71